sensor_id;sensor_type;location;lat;lon;timestamp;pressure;altitude;pressure_sealevel;temperature;humidity
3654;BME280;70277;54.302;10.064;2023-05-31T00:02:16;102528.66;;;7.90;75.00
3654;BME280;70277;54.302;10.064;2023-05-31T00:04:43;102530.34;;;7.91;74.39
3654;BME280;70277;54.302;10.064;2023-05-31T00:07:09;102527.47;;;7.93;74.55
3654;BME280;70277;54.302;10.064;2023-05-31T00:09:36;102535.63;;;8.00;74.77
3654;BME280;70277;54.302;10.064;2023-05-31T00:12:02;102542.31;;;7.89;74.46
3654;BME280;70277;54.302;10.064;2023-05-31T00:14:29;102530.78;;;7.80;74.14
3654;BME280;70277;54.302;10.064;2023-05-31T00:16:56;102529.78;;;7.81;74.53
3654;BME280;70277;54.302;10.064;2023-05-31T00:19:25;102528.56;;;7.84;74.08
3654;BME280;70277;54.302;10.064;2023-05-31T00:21:52;102537.31;;;7.86;74.80
3654;BME280;70277;54.302;10.064;2023-05-31T00:24:18;102537.88;;;7.81;75.02
3654;BME280;70277;54.302;10.064;2023-05-31T00:26:45;102535.56;;;7.78;74.79
3654;BME280;70277;54.302;10.064;2023-05-31T00:29:11;102528.84;;;7.74;74.42
3654;BME280;70277;54.302;10.064;2023-05-31T00:31:38;102536.31;;;7.72;74.82
3654;BME280;70277;54.302;10.064;2023-05-31T00:34:04;102536.66;;;7.69;74.92
3654;BME280;70277;54.302;10.064;2023-05-31T00:36:32;102536.75;;;7.75;75.36
3654;BME280;70277;54.302;10.064;2023-05-31T00:38:58;102541.94;;;7.62;74.37
3654;BME280;70277;54.302;10.064;2023-05-31T00:41:25;102535.81;;;7.53;74.82
3654;BME280;70277;54.302;10.064;2023-05-31T00:43:52;102545.28;;;7.49;74.01
3654;BME280;70277;54.302;10.064;2023-05-31T00:46:28;102537.59;;;7.46;74.44
3654;BME280;70277;54.302;10.064;2023-05-31T00:48:56;102543.63;;;7.48;74.33
3654;BME280;70277;54.302;10.064;2023-05-31T00:51:24;102540.56;;;7.51;74.14
3654;BME280;70277;54.302;10.064;2023-05-31T00:53:51;102541.94;;;7.47;74.15
3654;BME280;70277;54.302;10.064;2023-05-31T00:56:18;102545.38;;;7.41;75.13
3654;BME280;70277;54.302;10.064;2023-05-31T00:58:45;102545.44;;;7.33;75.19
3654;BME280;70277;54.302;10.064;2023-05-31T01:01:13;102531.81;;;7.35;75.22
3654;BME280;70277;54.302;10.064;2023-05-31T01:03:40;102538.09;;;7.27;75.82
3654;BME280;70277;54.302;10.064;2023-05-31T01:06:07;102533.06;;;7.24;76.11
3654;BME280;70277;54.302;10.064;2023-05-31T01:08:35;102537.47;;;7.25;75.23
3654;BME280;70277;54.302;10.064;2023-05-31T01:11:09;102532.97;;;7.17;75.06
3654;BME280;70277;54.302;10.064;2023-05-31T01:14:08;102532.16;;;7.17;74.65
3654;BME280;70277;54.302;10.064;2023-05-31T01:16:50;102537.97;;;7.05;75.37
3654;BME280;70277;54.302;10.064;2023-05-31T01:27:55;102534.34;;;6.98;75.65
3654;BME280;70277;54.302;10.064;2023-05-31T01:30:24;102535.44;;;6.89;76.75
3654;BME280;70277;54.302;10.064;2023-05-31T01:32:51;102533.06;;;6.86;75.39
3654;BME280;70277;54.302;10.064;2023-05-31T01:35:18;102525.19;;;6.84;74.87
3654;BME280;70277;54.302;10.064;2023-05-31T01:37:45;102531.09;;;6.80;74.61
3654;BME280;70277;54.302;10.064;2023-05-31T01:40:13;102538.22;;;6.73;75.32
3654;BME280;70277;54.302;10.064;2023-05-31T01:42:42;102549.50;;;6.68;75.04
3654;BME280;70277;54.302;10.064;2023-05-31T01:45:10;102541.28;;;6.70;75.92
3654;BME280;70277;54.302;10.064;2023-05-31T01:47:39;102530.31;;;6.71;74.40
3654;BME280;70277;54.302;10.064;2023-05-31T01:50:09;102526.53;;;6.66;76.31
3654;BME280;70277;54.302;10.064;2023-05-31T01:52:36;102538.63;;;6.61;76.84
3654;BME280;70277;54.302;10.064;2023-05-31T01:55:03;102538.28;;;6.65;76.65
3654;BME280;70277;54.302;10.064;2023-05-31T01:57:30;102534.59;;;6.66;76.39
3654;BME280;70277;54.302;10.064;2023-05-31T02:00:00;102538.28;;;6.65;76.63
3654;BME280;70277;54.302;10.064;2023-05-31T02:02:42;102523.81;;;6.66;76.14
3654;BME280;70277;54.302;10.064;2023-05-31T02:05:12;102526.56;;;6.57;75.58
3654;BME280;70277;54.302;10.064;2023-05-31T02:07:44;102512.56;;;6.62;74.67
3654;BME280;70277;54.302;10.064;2023-05-31T02:10:11;102519.72;;;6.47;75.50
3654;BME280;70277;54.302;10.064;2023-05-31T02:12:38;102517.69;;;6.26;76.80
3654;BME280;70277;54.302;10.064;2023-05-31T02:15:06;102508.59;;;6.27;77.30
3654;BME280;70277;54.302;10.064;2023-05-31T02:17:40;102504.13;;;6.19;76.78
3654;BME280;70277;54.302;10.064;2023-05-31T02:20:09;102514.69;;;6.21;77.40
3654;BME280;70277;54.302;10.064;2023-05-31T02:22:38;102510.28;;;6.28;76.97
3654;BME280;70277;54.302;10.064;2023-05-31T02:25:05;102513.69;;;6.22;76.20
3654;BME280;70277;54.302;10.064;2023-05-31T02:27:31;102506.09;;;6.25;75.39
3654;BME280;70277;54.302;10.064;2023-05-31T02:29:58;102508.94;;;6.24;75.93
3654;BME280;70277;54.302;10.064;2023-05-31T02:32:24;102507.63;;;6.20;75.70
3654;BME280;70277;54.302;10.064;2023-05-31T02:34:51;102511.28;;;6.27;75.94
3654;BME280;70277;54.302;10.064;2023-05-31T02:37:18;102513.97;;;6.27;76.31
3654;BME280;70277;54.302;10.064;2023-05-31T02:39:44;102509.28;;;6.21;75.68
3654;BME280;70277;54.302;10.064;2023-05-31T02:42:11;102510.16;;;6.21;76.34
3654;BME280;70277;54.302;10.064;2023-05-31T02:44:37;102510.16;;;6.21;75.37
3654;BME280;70277;54.302;10.064;2023-05-31T02:47:04;102512.19;;;6.19;75.50
3654;BME280;70277;54.302;10.064;2023-05-31T02:49:30;102506.31;;;6.15;75.00
3654;BME280;70277;54.302;10.064;2023-05-31T02:51:57;102512.88;;;6.13;75.83
3654;BME280;70277;54.302;10.064;2023-05-31T02:54:23;102506.31;;;6.15;75.55
3654;BME280;70277;54.302;10.064;2023-05-31T02:56:50;102508.00;;;6.17;75.86
3654;BME280;70277;54.302;10.064;2023-05-31T02:59:16;102504.63;;;6.14;75.24
3654;BME280;70277;54.302;10.064;2023-05-31T03:01:43;102498.78;;;6.11;75.09
3654;BME280;70277;54.302;10.064;2023-05-31T03:04:09;102501.66;;;6.09;75.01
3654;BME280;70277;54.302;10.064;2023-05-31T03:06:36;102504.81;;;6.13;75.04
3654;BME280;70277;54.302;10.064;2023-05-31T03:09:02;102503.47;;;6.09;74.28
3654;BME280;70277;54.302;10.064;2023-05-31T03:11:29;102491.53;;;6.11;74.87
3654;BME280;70277;54.302;10.064;2023-05-31T03:13:56;102494.22;;;6.11;74.50
3654;BME280;70277;54.302;10.064;2023-05-31T03:16:22;102498.28;;;6.07;75.13
3654;BME280;70277;54.302;10.064;2023-05-31T03:18:49;102491.53;;;6.11;74.15
3654;BME280;70277;54.302;10.064;2023-05-31T03:21:17;102498.63;;;6.12;74.63
3654;BME280;70277;54.302;10.064;2023-05-31T03:23:43;102502.13;;;6.13;74.61
3654;BME280;70277;54.302;10.064;2023-05-31T03:26:10;102500.28;;;6.13;74.99
3654;BME280;70277;54.302;10.064;2023-05-31T03:28:36;102507.38;;;6.06;75.16
3654;BME280;70277;54.302;10.064;2023-05-31T03:31:03;102497.03;;;6.18;74.57
3654;BME280;70277;54.302;10.064;2023-05-31T03:33:47;102495.81;;;6.29;73.97
3654;BME280;70277;54.302;10.064;2023-05-31T03:36:14;102491.09;;;6.31;74.68
3654;BME280;70277;54.302;10.064;2023-05-31T03:38:40;102492.97;;;6.30;74.04
3654;BME280;70277;54.302;10.064;2023-05-31T03:41:07;102487.34;;;6.40;73.82
3654;BME280;70277;54.302;10.064;2023-05-31T03:43:33;102483.94;;;6.46;74.97
3654;BME280;70277;54.302;10.064;2023-05-31T03:46:01;102488.59;;;6.52;74.69
3654;BME280;70277;54.302;10.064;2023-05-31T03:48:28;102488.44;;;6.54;74.08
3654;BME280;70277;54.302;10.064;2023-05-31T03:50:56;102492.22;;;6.59;73.96
3654;BME280;70277;54.302;10.064;2023-05-31T03:53:23;102485.81;;;6.69;73.93
3654;BME280;70277;54.302;10.064;2023-05-31T03:55:49;102488.59;;;6.75;73.92
3654;BME280;70277;54.302;10.064;2023-05-31T03:58:17;102481.00;;;6.79;73.54
3654;BME280;70277;54.302;10.064;2023-05-31T04:00:44;102476.91;;;6.83;73.77
3654;BME280;70277;54.302;10.064;2023-05-31T04:03:11;102482.22;;;6.91;73.57
3654;BME280;70277;54.302;10.064;2023-05-31T04:05:39;102477.44;;;7.01;74.31
3654;BME280;70277;54.302;10.064;2023-05-31T04:08:05;102487.91;;;6.96;74.09
3654;BME280;70277;54.302;10.064;2023-05-31T04:10:33;102482.56;;;7.26;74.48
3654;BME280;70277;54.302;10.064;2023-05-31T04:12:59;102481.09;;;7.53;74.25
3654;BME280;70277;54.302;10.064;2023-05-31T04:15:26;102483.50;;;7.63;74.19
3654;BME280;70277;54.302;10.064;2023-05-31T04:17:53;102474.13;;;7.73;73.48
3654;BME280;70277;54.302;10.064;2023-05-31T04:20:19;102475.41;;;7.78;73.68
3654;BME280;70277;54.302;10.064;2023-05-31T04:22:46;102475.22;;;7.79;74.58
3654;BME280;70277;54.302;10.064;2023-05-31T04:25:13;102477.94;;;7.79;74.43
3654;BME280;70277;54.302;10.064;2023-05-31T04:27:39;102465.56;;;7.85;75.51
3654;BME280;70277;54.302;10.064;2023-05-31T04:30:07;102469.81;;;7.94;75.61
3654;BME280;70277;54.302;10.064;2023-05-31T04:32:34;102474.13;;;8.10;76.62
3654;BME280;70277;54.302;10.064;2023-05-31T04:35:01;102479.03;;;8.21;77.17
3654;BME280;70277;54.302;10.064;2023-05-31T04:37:30;102472.41;;;8.38;77.90
3654;BME280;70277;54.302;10.064;2023-05-31T04:39:57;102481.28;;;8.54;75.58
3654;BME280;70277;54.302;10.064;2023-05-31T04:42:27;102481.91;;;8.77;75.58
3654;BME280;70277;54.302;10.064;2023-05-31T04:44:54;102480.44;;;8.75;75.59
3654;BME280;70277;54.302;10.064;2023-05-31T04:47:24;102490.28;;;8.82;75.89
3654;BME280;70277;54.302;10.064;2023-05-31T04:49:56;102489.09;;;8.92;76.46
3654;BME280;70277;54.302;10.064;2023-05-31T04:52:27;102482.00;;;9.12;76.65
3654;BME280;70277;54.302;10.064;2023-05-31T04:54:56;102478.06;;;9.15;76.97
3654;BME280;70277;54.302;10.064;2023-05-31T04:57:23;102488.50;;;9.24;76.94
3654;BME280;70277;54.302;10.064;2023-05-31T04:59:50;102493.22;;;9.44;77.34
3654;BME280;70277;54.302;10.064;2023-05-31T05:02:18;102493.72;;;9.61;77.22
3654;BME280;70277;54.302;10.064;2023-05-31T05:04:45;102490.28;;;9.73;77.11
3654;BME280;70277;54.302;10.064;2023-05-31T05:07:12;102501.69;;;9.75;77.02
3654;BME280;70277;54.302;10.064;2023-05-31T05:09:39;102484.75;;;9.95;76.72
3654;BME280;70277;54.302;10.064;2023-05-31T05:12:06;102488.94;;;10.04;76.51
3654;BME280;70277;54.302;10.064;2023-05-31T05:14:33;102486.53;;;10.29;75.91
3654;BME280;70277;54.302;10.064;2023-05-31T05:16:59;102491.16;;;10.48;75.31
3654;BME280;70277;54.302;10.064;2023-05-31T05:19:26;102477.03;;;10.73;74.59
3654;BME280;70277;54.302;10.064;2023-05-31T05:21:54;102489.34;;;10.89;74.39
3654;BME280;70277;54.302;10.064;2023-05-31T05:24:21;102490.59;;;11.13;74.32
3654;BME280;70277;54.302;10.064;2023-05-31T05:26:47;102477.63;;;11.15;73.68
3654;BME280;70277;54.302;10.064;2023-05-31T05:29:14;102488.69;;;11.20;74.28
3654;BME280;70277;54.302;10.064;2023-05-31T05:31:40;102492.19;;;11.41;73.38
3654;BME280;70277;54.302;10.064;2023-05-31T05:34:06;102489.22;;;11.69;72.86
3654;BME280;70277;54.302;10.064;2023-05-31T05:36:33;102485.81;;;11.80;72.06
3654;BME280;70277;54.302;10.064;2023-05-31T05:39:00;102478.50;;;11.94;71.51
3654;BME280;70277;54.302;10.064;2023-05-31T05:41:30;102483.69;;;12.40;70.91
3654;BME280;70277;54.302;10.064;2023-05-31T05:43:57;102473.78;;;12.84;68.80
3654;BME280;70277;54.302;10.064;2023-05-31T05:46:23;102481.22;;;12.95;68.83
3654;BME280;70277;54.302;10.064;2023-05-31T05:48:50;102478.44;;;13.64;67.93
3654;BME280;70277;54.302;10.064;2023-05-31T05:51:17;102472.81;;;13.96;66.61
3654;BME280;70277;54.302;10.064;2023-05-31T05:53:43;102472.00;;;14.25;64.49
3654;BME280;70277;54.302;10.064;2023-05-31T05:56:11;102470.13;;;14.26;64.23
3654;BME280;70277;54.302;10.064;2023-05-31T05:58:39;102465.50;;;14.26;65.91
3654;BME280;70277;54.302;10.064;2023-05-31T06:01:06;102464.00;;;14.12;65.82
3654;BME280;70277;54.302;10.064;2023-05-31T06:03:33;102460.28;;;14.67;65.17
3654;BME280;70277;54.302;10.064;2023-05-31T06:06:00;102458.53;;;14.84;64.48
3654;BME280;70277;54.302;10.064;2023-05-31T06:08:27;102456.28;;;15.28;63.34
3654;BME280;70277;54.302;10.064;2023-05-31T06:10:53;102450.34;;;15.43;61.70
3654;BME280;70277;54.302;10.064;2023-05-31T06:13:20;102446.16;;;15.52;61.47
3654;BME280;70277;54.302;10.064;2023-05-31T06:15:46;102451.03;;;15.74;60.99
3654;BME280;70277;54.302;10.064;2023-05-31T06:18:12;102447.78;;;15.88;60.44
3654;BME280;70277;54.302;10.064;2023-05-31T06:20:40;102453.00;;;16.19;59.88
3654;BME280;70277;54.302;10.064;2023-05-31T06:23:07;102437.25;;;16.26;59.56
3654;BME280;70277;54.302;10.064;2023-05-31T06:25:34;102438.28;;;16.36;59.01
3654;BME280;70277;54.302;10.064;2023-05-31T06:28:02;102436.66;;;16.24;58.69
3654;BME280;70277;54.302;10.064;2023-05-31T06:30:30;102442.91;;;16.36;59.63
3654;BME280;70277;54.302;10.064;2023-05-31T06:32:56;102444.69;;;16.76;58.63
3654;BME280;70277;54.302;10.064;2023-05-31T06:35:23;102440.38;;;16.80;58.08
3654;BME280;70277;54.302;10.064;2023-05-31T06:37:49;102446.03;;;16.90;57.70
3654;BME280;70277;54.302;10.064;2023-05-31T06:40:19;102456.75;;;17.74;56.23
3654;BME280;70277;54.302;10.064;2023-05-31T06:42:45;102453.97;;;17.69;55.32
3654;BME280;70277;54.302;10.064;2023-05-31T06:45:12;102453.31;;;17.62;56.51
3654;BME280;70277;54.302;10.064;2023-05-31T06:47:38;102454.06;;;17.36;56.41
3654;BME280;70277;54.302;10.064;2023-05-31T06:50:05;102446.91;;;18.23;54.58
3654;BME280;70277;54.302;10.064;2023-05-31T06:52:32;102450.47;;;18.23;55.27
3654;BME280;70277;54.302;10.064;2023-05-31T06:54:58;102446.94;;;18.55;54.74
3654;BME280;70277;54.302;10.064;2023-05-31T06:57:25;102458.50;;;18.62;53.38
3654;BME280;70277;54.302;10.064;2023-05-31T06:59:51;102454.91;;;18.89;52.52
3654;BME280;70277;54.302;10.064;2023-05-31T07:02:18;102461.75;;;18.86;53.14
3654;BME280;70277;54.302;10.064;2023-05-31T07:04:44;102452.97;;;18.57;52.15
3654;BME280;70277;54.302;10.064;2023-05-31T07:07:11;102458.94;;;18.81;53.45
3654;BME280;70277;54.302;10.064;2023-05-31T07:09:37;102451.97;;;19.48;51.84
3654;BME280;70277;54.302;10.064;2023-05-31T07:12:04;102449.78;;;19.50;51.35
3654;BME280;70277;54.302;10.064;2023-05-31T07:14:31;102444.03;;;19.57;50.69
3654;BME280;70277;54.302;10.064;2023-05-31T07:16:57;102445.59;;;19.32;50.93
3654;BME280;70277;54.302;10.064;2023-05-31T07:19:23;102439.09;;;19.53;49.80
3654;BME280;70277;54.302;10.064;2023-05-31T07:21:50;102445.53;;;19.27;49.40
3654;BME280;70277;54.302;10.064;2023-05-31T07:24:16;102445.56;;;19.90;48.36
3654;BME280;70277;54.302;10.064;2023-05-31T07:26:43;102440.19;;;19.52;49.12
3654;BME280;70277;54.302;10.064;2023-05-31T07:29:09;102440.16;;;20.41;48.13
3654;BME280;70277;54.302;10.064;2023-05-31T07:31:38;102440.72;;;20.84;46.92
3654;BME280;70277;54.302;10.064;2023-05-31T07:34:04;102436.81;;;21.16;46.00
3654;BME280;70277;54.302;10.064;2023-05-31T07:36:31;102435.22;;;20.33;47.31
3654;BME280;70277;54.302;10.064;2023-05-31T07:38:58;102434.69;;;20.66;47.23
3654;BME280;70277;54.302;10.064;2023-05-31T07:41:26;102428.31;;;21.12;44.42
3654;BME280;70277;54.302;10.064;2023-05-31T07:43:53;102422.50;;;21.13;44.13
3654;BME280;70277;54.302;10.064;2023-05-31T07:46:21;102425.19;;;21.29;43.92
3654;BME280;70277;54.302;10.064;2023-05-31T07:48:47;102427.53;;;20.76;45.62
3654;BME280;70277;54.302;10.064;2023-05-31T07:51:14;102423.25;;;21.34;44.16
3654;BME280;70277;54.302;10.064;2023-05-31T07:53:41;102422.84;;;20.45;45.22
3654;BME280;70277;54.302;10.064;2023-05-31T07:56:08;102413.75;;;20.81;44.05
3654;BME280;70277;54.302;10.064;2023-05-31T07:58:34;102410.69;;;21.08;44.09
3654;BME280;70277;54.302;10.064;2023-05-31T08:01:01;102407.53;;;21.50;44.65
3654;BME280;70277;54.302;10.064;2023-05-31T08:03:27;102406.81;;;21.14;46.40
3654;BME280;70277;54.302;10.064;2023-05-31T08:05:54;102409.78;;;21.33;44.39
3654;BME280;70277;54.302;10.064;2023-05-31T08:08:21;102413.91;;;21.30;44.04
3654;BME280;70277;54.302;10.064;2023-05-31T08:10:48;102406.72;;;21.94;43.04
3654;BME280;70277;54.302;10.064;2023-05-31T08:13:14;102404.06;;;22.23;41.76
3654;BME280;70277;54.302;10.064;2023-05-31T08:15:41;102400.13;;;21.95;40.26
3654;BME280;70277;54.302;10.064;2023-05-31T08:18:07;102403.47;;;22.32;39.93
3654;BME280;70277;54.302;10.064;2023-05-31T08:20:34;102401.97;;;22.74;39.04
3654;BME280;70277;54.302;10.064;2023-05-31T08:23:01;102391.53;;;23.24;37.76
3654;BME280;70277;54.302;10.064;2023-05-31T08:25:27;102394.44;;;22.84;38.08
3654;BME280;70277;54.302;10.064;2023-05-31T08:27:53;102394.16;;;23.10;37.89
3654;BME280;70277;54.302;10.064;2023-05-31T08:30:20;102391.81;;;23.65;38.47
3654;BME280;70277;54.302;10.064;2023-05-31T08:32:46;102393.22;;;23.44;36.41
3654;BME280;70277;54.302;10.064;2023-05-31T08:35:13;102395.09;;;23.24;36.43
3654;BME280;70277;54.302;10.064;2023-05-31T08:37:39;102390.72;;;23.23;38.22
3654;BME280;70277;54.302;10.064;2023-05-31T08:40:06;102385.94;;;22.52;38.15
3654;BME280;70277;54.302;10.064;2023-05-31T08:42:44;102388.91;;;22.84;38.28
3654;BME280;70277;54.302;10.064;2023-05-31T08:45:13;102385.47;;;22.68;37.67
3654;BME280;70277;54.302;10.064;2023-05-31T08:47:43;102391.09;;;21.85;39.77
3654;BME280;70277;54.302;10.064;2023-05-31T08:50:11;102398.03;;;21.77;39.53
3654;BME280;70277;54.302;10.064;2023-05-31T08:52:38;102391.31;;;21.93;39.46
3654;BME280;70277;54.302;10.064;2023-05-31T08:55:07;102373.56;;;23.02;38.28
3654;BME280;70277;54.302;10.064;2023-05-31T08:57:34;102381.78;;;23.50;38.34
3654;BME280;70277;54.302;10.064;2023-05-31T09:00:02;102384.84;;;23.92;37.61
3654;BME280;70277;54.302;10.064;2023-05-31T09:02:34;102378.56;;;24.38;36.11
3654;BME280;70277;54.302;10.064;2023-05-31T09:05:02;102373.25;;;23.90;36.98
3654;BME280;70277;54.302;10.064;2023-05-31T09:07:28;102384.53;;;23.74;37.01
3654;BME280;70277;54.302;10.064;2023-05-31T09:09:55;102374.59;;;23.73;37.30
3654;BME280;70277;54.302;10.064;2023-05-31T09:12:22;102373.94;;;23.81;36.92
3654;BME280;70277;54.302;10.064;2023-05-31T09:14:48;102365.38;;;24.16;36.85
3654;BME280;70277;54.302;10.064;2023-05-31T09:17:16;102367.91;;;24.12;37.13
3654;BME280;70277;54.302;10.064;2023-05-31T09:19:49;102366.56;;;24.10;37.56
3654;BME280;70277;54.302;10.064;2023-05-31T09:22:17;102364.13;;;25.01;36.40
3654;BME280;70277;54.302;10.064;2023-05-31T09:24:58;102357.88;;;24.16;36.21
3654;BME280;70277;54.302;10.064;2023-05-31T09:27:26;102360.69;;;23.97;36.44
3654;BME280;70277;54.302;10.064;2023-05-31T09:29:54;102359.81;;;24.67;36.65
3654;BME280;70277;54.302;10.064;2023-05-31T09:32:21;102348.97;;;24.19;36.44
3654;BME280;70277;54.302;10.064;2023-05-31T09:34:47;102350.00;;;24.42;36.32
3654;BME280;70277;54.302;10.064;2023-05-31T09:37:23;102346.56;;;24.64;37.43
3654;BME280;70277;54.302;10.064;2023-05-31T09:39:54;102353.94;;;24.69;36.17
3654;BME280;70277;54.302;10.064;2023-05-31T09:42:24;102347.91;;;25.22;36.54
3654;BME280;70277;54.302;10.064;2023-05-31T09:44:52;102350.06;;;25.25;35.85
3654;BME280;70277;54.302;10.064;2023-05-31T09:47:25;102348.31;;;25.79;35.21
3654;BME280;70277;54.302;10.064;2023-05-31T09:49:53;102339.91;;;25.71;34.84
3654;BME280;70277;54.302;10.064;2023-05-31T09:52:28;102345.97;;;26.09;35.84
3654;BME280;70277;54.302;10.064;2023-05-31T09:54:57;102333.56;;;24.32;36.35
3654;BME280;70277;54.302;10.064;2023-05-31T09:57:34;102341.41;;;24.44;35.47
3654;BME280;70277;54.302;10.064;2023-05-31T10:00:07;102348.94;;;24.85;36.21
3654;BME280;70277;54.302;10.064;2023-05-31T10:03:01;102342.25;;;24.72;35.64
3654;BME280;70277;54.302;10.064;2023-05-31T10:05:28;102335.50;;;24.92;35.66
3654;BME280;70277;54.302;10.064;2023-05-31T10:07:54;102341.25;;;25.09;35.42
3654;BME280;70277;54.302;10.064;2023-05-31T10:10:21;102327.22;;;25.92;33.66
3654;BME280;70277;54.302;10.064;2023-05-31T10:12:51;102329.63;;;25.35;35.36
3654;BME280;70277;54.302;10.064;2023-05-31T10:15:26;102324.63;;;25.96;34.42
3654;BME280;70277;54.302;10.064;2023-05-31T10:18:07;102323.25;;;25.84;34.23
3654;BME280;70277;54.302;10.064;2023-05-31T10:20:39;102319.78;;;26.55;32.92
3654;BME280;70277;54.302;10.064;2023-05-31T10:23:20;102312.22;;;26.78;31.79
3654;BME280;70277;54.302;10.064;2023-05-31T10:28:27;102308.59;;;26.46;33.40
3654;BME280;70277;54.302;10.064;2023-05-31T10:30:56;102300.03;;;26.57;33.42
3654;BME280;70277;54.302;10.064;2023-05-31T10:33:26;102296.31;;;25.85;34.38
3654;BME280;70277;54.302;10.064;2023-05-31T10:35:58;102308.28;;;26.17;35.81
3654;BME280;70277;54.302;10.064;2023-05-31T10:38:57;102304.72;;;26.87;35.13
3654;BME280;70277;54.302;10.064;2023-05-31T10:41:29;102291.78;;;27.66;34.16
3654;BME280;70277;54.302;10.064;2023-05-31T10:44:06;102295.09;;;26.22;33.54
3654;BME280;70277;54.302;10.064;2023-05-31T10:46:38;102297.97;;;25.86;35.63
3654;BME280;70277;54.302;10.064;2023-05-31T10:49:08;102298.00;;;26.48;34.99
3654;BME280;70277;54.302;10.064;2023-05-31T10:51:39;102289.09;;;25.61;35.56
3654;BME280;70277;54.302;10.064;2023-05-31T10:54:06;102289.06;;;25.53;35.46
3654;BME280;70277;54.302;10.064;2023-05-31T10:56:36;102283.19;;;25.18;36.60
3654;BME280;70277;54.302;10.064;2023-05-31T10:59:03;102291.34;;;25.37;37.06
3654;BME280;70277;54.302;10.064;2023-05-31T11:01:30;102290.53;;;25.95;34.86
3654;BME280;70277;54.302;10.064;2023-05-31T11:03:57;102269.59;;;25.30;35.24
3654;BME280;70277;54.302;10.064;2023-05-31T11:06:31;102281.28;;;25.63;35.58
3654;BME280;70277;54.302;10.064;2023-05-31T11:09:13;102277.75;;;25.49;35.53
3654;BME280;70277;54.302;10.064;2023-05-31T11:11:44;102282.88;;;24.92;36.25
3654;BME280;70277;54.302;10.064;2023-05-31T11:19:14;102275.84;;;25.36;34.35
3654;BME280;70277;54.302;10.064;2023-05-31T11:24:54;102268.41;;;24.95;35.85
3654;BME280;70277;54.302;10.064;2023-05-31T11:27:23;102266.16;;;24.97;34.91
3654;BME280;70277;54.302;10.064;2023-05-31T11:35:08;102260.09;;;24.95;36.32
3654;BME280;70277;54.302;10.064;2023-05-31T11:37:38;102264.25;;;25.93;33.47
3654;BME280;70277;54.302;10.064;2023-05-31T11:40:07;102264.25;;;26.55;32.56
3654;BME280;70277;54.302;10.064;2023-05-31T11:42:36;102259.50;;;25.93;33.35
3654;BME280;70277;54.302;10.064;2023-05-31T11:45:05;102250.72;;;26.53;32.65
3654;BME280;70277;54.302;10.064;2023-05-31T11:50:16;102236.19;;;24.99;35.38
3654;BME280;70277;54.302;10.064;2023-05-31T11:52:43;102243.19;;;24.96;34.94
3654;BME280;70277;54.302;10.064;2023-05-31T11:55:10;102241.16;;;24.74;35.97
3654;BME280;70277;54.302;10.064;2023-05-31T11:57:48;102246.91;;;24.50;35.28
3654;BME280;70277;54.302;10.064;2023-05-31T12:00:18;102241.78;;;24.85;35.44
3654;BME280;70277;54.302;10.064;2023-05-31T12:02:52;102245.06;;;24.73;35.52
3654;BME280;70277;54.302;10.064;2023-05-31T12:05:19;102234.50;;;25.26;35.84
3654;BME280;70277;54.302;10.064;2023-05-31T12:07:46;102233.22;;;25.46;35.62
3654;BME280;70277;54.302;10.064;2023-05-31T12:10:15;102230.66;;;25.94;34.61
3654;BME280;70277;54.302;10.064;2023-05-31T12:12:42;102239.44;;;26.19;34.46
3654;BME280;70277;54.302;10.064;2023-05-31T12:15:11;102238.88;;;26.39;34.90
3654;BME280;70277;54.302;10.064;2023-05-31T12:17:38;102222.34;;;26.65;34.56
3654;BME280;70277;54.302;10.064;2023-05-31T12:20:06;102232.16;;;26.00;35.50
3654;BME280;70277;54.302;10.064;2023-05-31T12:22:34;102217.88;;;24.48;37.41
3654;BME280;70277;54.302;10.064;2023-05-31T12:25:01;102225.34;;;24.20;38.49
3654;BME280;70277;54.302;10.064;2023-05-31T12:27:27;102221.41;;;23.93;39.20
3654;BME280;70277;54.302;10.064;2023-05-31T12:30:16;102216.44;;;25.28;37.76
3654;BME280;70277;54.302;10.064;2023-05-31T12:32:44;102212.44;;;25.79;36.84
3654;BME280;70277;54.302;10.064;2023-05-31T12:35:11;102216.50;;;25.01;37.14
3654;BME280;70277;54.302;10.064;2023-05-31T12:37:39;102225.28;;;24.52;38.45
3654;BME280;70277;54.302;10.064;2023-05-31T12:40:14;102212.16;;;25.22;38.03
3654;BME280;70277;54.302;10.064;2023-05-31T12:42:41;102220.84;;;24.38;36.77
3654;BME280;70277;54.302;10.064;2023-05-31T12:45:08;102218.03;;;23.96;36.91
3654;BME280;70277;54.302;10.064;2023-05-31T12:47:36;102220.44;;;23.65;37.48
3654;BME280;70277;54.302;10.064;2023-05-31T12:50:05;102217.97;;;23.12;38.71
3654;BME280;70277;54.302;10.064;2023-05-31T12:52:37;102210.44;;;23.69;38.08
3654;BME280;70277;54.302;10.064;2023-05-31T12:55:07;102199.53;;;23.26;39.30
3654;BME280;70277;54.302;10.064;2023-05-31T12:57:34;102205.59;;;23.28;39.07
3654;BME280;70277;54.302;10.064;2023-05-31T13:00:03;102205.59;;;23.61;38.60
3654;BME280;70277;54.302;10.064;2023-05-31T13:02:34;102213.56;;;23.11;39.89
3654;BME280;70277;54.302;10.064;2023-05-31T13:05:00;102197.94;;;23.58;39.04
3654;BME280;70277;54.302;10.064;2023-05-31T13:07:27;102202.25;;;22.16;42.11
3654;BME280;70277;54.302;10.064;2023-05-31T13:09:54;102200.34;;;23.08;41.09
3654;BME280;70277;54.302;10.064;2023-05-31T13:12:20;102193.75;;;24.07;39.31
3654;BME280;70277;54.302;10.064;2023-05-31T13:14:47;102191.31;;;24.05;38.23
3654;BME280;70277;54.302;10.064;2023-05-31T13:17:14;102183.56;;;23.56;38.78
3654;BME280;70277;54.302;10.064;2023-05-31T13:19:43;102189.09;;;23.56;39.77
3654;BME280;70277;54.302;10.064;2023-05-31T13:22:22;102189.97;;;23.37;40.20
3654;BME280;70277;54.302;10.064;2023-05-31T13:24:48;102178.19;;;24.11;38.66
3654;BME280;70277;54.302;10.064;2023-05-31T13:27:15;102169.28;;;24.14;40.01
3654;BME280;70277;54.302;10.064;2023-05-31T13:29:41;102169.56;;;23.85;39.66